sensor_id;sensor_type;location;lat;lon;timestamp;pressure;altitude;pressure_sealevel;temperature;humidity
69535;BME280;56754;51.568;5.048;2023-12-07T00:01:05;101875.22;;;10.97;59.17
69535;BME280;56754;51.568;5.048;2023-12-07T00:03:30;101872.63;;;10.92;58.90
69535;BME280;56754;51.568;5.048;2023-12-07T00:05:56;101873.22;;;10.89;59.13
69535;BME280;56754;51.568;5.048;2023-12-07T00:08:21;101872.16;;;10.85;58.85
69535;BME280;56754;51.568;5.048;2023-12-07T00:10:46;101879.97;;;10.81;59.70
69535;BME280;56754;51.568;5.048;2023-12-07T00:13:11;101871.22;;;10.76;59.79
69535;BME280;56754;51.568;5.048;2023-12-07T00:15:37;101880.88;;;10.72;59.98
69535;BME280;56754;51.568;5.048;2023-12-07T00:18:02;101887.88;;;10.67;60.20
69535;BME280;56754;51.568;5.048;2023-12-07T00:20:30;101880.72;;;10.63;60.08
69535;BME280;56754;51.568;5.048;2023-12-07T00:22:56;101874.31;;;10.59;60.07
69535;BME280;56754;51.568;5.048;2023-12-07T00:25:21;101878.66;;;10.55;60.33
69535;BME280;56754;51.568;5.048;2023-12-07T00:27:47;101875.19;;;10.54;60.32
69535;BME280;56754;51.568;5.048;2023-12-07T00:30:12;101883.66;;;10.61;60.28
69535;BME280;56754;51.568;5.048;2023-12-07T00:32:38;101883.75;;;10.80;58.80
69535;BME280;56754;51.568;5.048;2023-12-07T00:35:03;101878.94;;;11.01;57.89
69535;BME280;56754;51.568;5.048;2023-12-07T00:37:29;101876.81;;;11.22;57.56
69535;BME280;56754;51.568;5.048;2023-12-07T00:39:54;101879.81;;;11.39;57.16
69535;BME280;56754;51.568;5.048;2023-12-07T00:42:19;101874.75;;;11.57;56.90
69535;BME280;56754;51.568;5.048;2023-12-07T00:44:45;101880.16;;;11.71;56.44
69535;BME280;56754;51.568;5.048;2023-12-07T00:47:10;101882.91;;;11.84;55.93
69535;BME280;56754;51.568;5.048;2023-12-07T00:49:38;101882.69;;;12.00;56.01
69535;BME280;56754;51.568;5.048;2023-12-07T00:52:04;101885.41;;;12.14;55.22
69535;BME280;56754;51.568;5.048;2023-12-07T00:54:29;101878.50;;;12.26;55.53
69535;BME280;56754;51.568;5.048;2023-12-07T00:56:54;101873.56;;;12.34;54.79
69535;BME280;56754;51.568;5.048;2023-12-07T00:59:20;101886.84;;;12.39;54.25
69535;BME280;56754;51.568;5.048;2023-12-07T01:01:45;101876.44;;;12.37;53.97
69535;BME280;56754;51.568;5.048;2023-12-07T01:04:10;101884.47;;;12.37;53.95
69535;BME280;56754;51.568;5.048;2023-12-07T01:06:36;101879.72;;;12.34;53.61
69535;BME280;56754;51.568;5.048;2023-12-07T01:09:01;101880.78;;;12.33;53.66
69535;BME280;56754;51.568;5.048;2023-12-07T01:11:26;101883.47;;;12.33;53.61
69535;BME280;56754;51.568;5.048;2023-12-07T01:13:52;101881.38;;;12.30;53.29
69535;BME280;56754;51.568;5.048;2023-12-07T01:16:17;101885.75;;;12.26;53.31
69535;BME280;56754;51.568;5.048;2023-12-07T01:18:42;101889.81;;;12.23;53.36
69535;BME280;56754;51.568;5.048;2023-12-07T01:21:07;101892.19;;;12.25;53.78
69535;BME280;56754;51.568;5.048;2023-12-07T01:23:33;101890.50;;;12.29;54.05
69535;BME280;56754;51.568;5.048;2023-12-07T01:25:58;101895.78;;;12.34;54.06
69535;BME280;56754;51.568;5.048;2023-12-07T01:28:23;101887.09;;;12.42;54.10
69535;BME280;56754;51.568;5.048;2023-12-07T01:30:49;101890.16;;;12.49;53.73
69535;BME280;56754;51.568;5.048;2023-12-07T01:33:14;101884.50;;;12.51;53.44
69535;BME280;56754;51.568;5.048;2023-12-07T01:35:39;101892.84;;;12.49;53.12
69535;BME280;56754;51.568;5.048;2023-12-07T01:38:04;101893.44;;;12.46;52.92
69535;BME280;56754;51.568;5.048;2023-12-07T01:40:30;101895.59;;;12.44;52.76
69535;BME280;56754;51.568;5.048;2023-12-07T01:42:55;101901.56;;;12.41;52.89
69535;BME280;56754;51.568;5.048;2023-12-07T01:45:20;101910.41;;;12.42;53.11
69535;BME280;56754;51.568;5.048;2023-12-07T01:47:47;101894.81;;;12.44;53.00
69535;BME280;56754;51.568;5.048;2023-12-07T01:50:14;101902.00;;;12.48;53.34
69535;BME280;56754;51.568;5.048;2023-12-07T01:52:43;101908.84;;;12.55;53.25
69535;BME280;56754;51.568;5.048;2023-12-07T01:55:10;101904.97;;;12.61;53.21
69535;BME280;56754;51.568;5.048;2023-12-07T01:57:37;101906.75;;;12.65;52.64
69535;BME280;56754;51.568;5.048;2023-12-07T02:00:02;101914.00;;;12.65;52.92
69535;BME280;56754;51.568;5.048;2023-12-07T02:02:28;101900.91;;;12.63;52.59
69535;BME280;56754;51.568;5.048;2023-12-07T02:04:54;101907.66;;;12.61;52.33
69535;BME280;56754;51.568;5.048;2023-12-07T02:07:19;101912.50;;;12.59;52.56
69535;BME280;56754;51.568;5.048;2023-12-07T02:09:45;101903.38;;;12.60;52.51
69535;BME280;56754;51.568;5.048;2023-12-07T02:12:10;101903.88;;;12.62;52.74
69535;BME280;56754;51.568;5.048;2023-12-07T02:14:36;101904.38;;;12.64;52.85
69535;BME280;56754;51.568;5.048;2023-12-07T02:17:25;101911.25;;;12.70;52.57
69535;BME280;56754;51.568;5.048;2023-12-07T02:19:58;101912.94;;;12.80;52.93
69535;BME280;56754;51.568;5.048;2023-12-07T02:22:30;101907.06;;;12.91;52.74
69535;BME280;56754;51.568;5.048;2023-12-07T02:25:04;101905.28;;;13.01;52.04
69535;BME280;56754;51.568;5.048;2023-12-07T02:27:41;101910.06;;;13.04;51.84
69535;BME280;56754;51.568;5.048;2023-12-07T02:30:09;101913.34;;;13.01;51.99
69535;BME280;56754;51.568;5.048;2023-12-07T02:32:36;101911.06;;;12.94;51.67
69535;BME280;56754;51.568;5.048;2023-12-07T02:35:02;101910.34;;;12.88;51.51
69535;BME280;56754;51.568;5.048;2023-12-07T02:37:28;101904.47;;;12.86;52.13
69535;BME280;56754;51.568;5.048;2023-12-07T02:39:58;101905.78;;;12.89;52.06
69535;BME280;56754;51.568;5.048;2023-12-07T02:42:24;101909.16;;;12.94;51.93
69535;BME280;56754;51.568;5.048;2023-12-07T02:44:52;101911.66;;;13.05;51.85
69535;BME280;56754;51.568;5.048;2023-12-07T02:47:18;101909.88;;;13.14;51.57
69535;BME280;56754;51.568;5.048;2023-12-07T02:49:43;101906.16;;;13.24;51.52
69535;BME280;56754;51.568;5.048;2023-12-07T02:52:09;101898.50;;;13.31;51.21
69535;BME280;56754;51.568;5.048;2023-12-07T02:54:34;101900.13;;;13.32;50.90
69535;BME280;56754;51.568;5.048;2023-12-07T02:56:59;101893.47;;;13.29;50.72
69535;BME280;56754;51.568;5.048;2023-12-07T02:59:24;101898.41;;;13.22;50.61
69535;BME280;56754;51.568;5.048;2023-12-07T03:01:50;101898.81;;;13.15;51.05
69535;BME280;56754;51.568;5.048;2023-12-07T03:04:15;101903.19;;;13.11;51.10
69535;BME280;56754;51.568;5.048;2023-12-07T03:06:40;101905.47;;;13.18;51.31
69535;BME280;56754;51.568;5.048;2023-12-07T03:09:06;101909.38;;;13.26;51.10
69535;BME280;56754;51.568;5.048;2023-12-07T03:11:31;101912.16;;;13.34;51.04
69535;BME280;56754;51.568;5.048;2023-12-07T03:13:56;101913.81;;;13.44;50.68
69535;BME280;56754;51.568;5.048;2023-12-07T03:16:21;101914.69;;;13.53;50.56
69535;BME280;56754;51.568;5.048;2023-12-07T03:18:47;101918.56;;;13.61;50.22
69535;BME280;56754;51.568;5.048;2023-12-07T03:21:12;101916.16;;;13.59;49.90
69535;BME280;56754;51.568;5.048;2023-12-07T03:23:37;101916.50;;;13.58;49.60
69535;BME280;56754;51.568;5.048;2023-12-07T03:26:03;101915.31;;;13.50;49.71
69535;BME280;56754;51.568;5.048;2023-12-07T03:28:28;101919.97;;;13.45;49.90
69535;BME280;56754;51.568;5.048;2023-12-07T03:30:53;101915.72;;;13.43;50.23
69535;BME280;56754;51.568;5.048;2023-12-07T03:33:19;101926.03;;;13.50;50.39
69535;BME280;56754;51.568;5.048;2023-12-07T03:35:44;101924.53;;;13.58;50.06
69535;BME280;56754;51.568;5.048;2023-12-07T03:38:09;101924.91;;;13.65;49.88
69535;BME280;56754;51.568;5.048;2023-12-07T03:40:34;101934.16;;;13.73;49.73
69535;BME280;56754;51.568;5.048;2023-12-07T03:43:00;101941.28;;;13.77;49.81
69535;BME280;56754;51.568;5.048;2023-12-07T03:45:25;101943.09;;;13.82;49.54
69535;BME280;56754;51.568;5.048;2023-12-07T03:47:50;101941.19;;;13.82;49.49
69535;BME280;56754;51.568;5.048;2023-12-07T03:50:16;101939.09;;;13.79;49.32
69535;BME280;56754;51.568;5.048;2023-12-07T03:52:41;101938.44;;;13.74;49.14
69535;BME280;56754;51.568;5.048;2023-12-07T03:55:06;101946.13;;;13.67;49.21
69535;BME280;56754;51.568;5.048;2023-12-07T03:57:32;101937.38;;;13.61;49.63
69535;BME280;56754;51.568;5.048;2023-12-07T04:00:00;101940.06;;;13.61;49.87
69535;BME280;56754;51.568;5.048;2023-12-07T04:02:25;101940.75;;;13.67;50.00
69535;BME280;56754;51.568;5.048;2023-12-07T04:04:51;101948.38;;;13.73;49.66
69535;BME280;56754;51.568;5.048;2023-12-07T04:07:16;101948.28;;;13.78;49.75
69535;BME280;56754;51.568;5.048;2023-12-07T04:09:41;101947.06;;;13.84;49.52
69535;BME280;56754;51.568;5.048;2023-12-07T04:12:07;101946.44;;;13.87;49.48
69535;BME280;56754;51.568;5.048;2023-12-07T04:14:32;101948.63;;;13.85;49.29
69535;BME280;56754;51.568;5.048;2023-12-07T04:16:57;101951.16;;;13.82;49.08
69535;BME280;56754;51.568;5.048;2023-12-07T04:19:22;101953.16;;;13.76;49.28
69535;BME280;56754;51.568;5.048;2023-12-07T04:21:48;101950.56;;;13.71;49.74
69535;BME280;56754;51.568;5.048;2023-12-07T04:24:13;101953.25;;;13.71;50.04
69535;BME280;56754;51.568;5.048;2023-12-07T04:26:38;101943.69;;;13.79;49.92
69535;BME280;56754;51.568;5.048;2023-12-07T04:29:04;101939.47;;;13.86;49.71
69535;BME280;56754;51.568;5.048;2023-12-07T04:31:29;101945.84;;;13.91;49.85
69535;BME280;56754;51.568;5.048;2023-12-07T04:33:55;101950.59;;;13.94;49.52
69535;BME280;56754;51.568;5.048;2023-12-07T04:36:20;101941.75;;;13.93;49.18
69535;BME280;56754;51.568;5.048;2023-12-07T04:38:46;101938.06;;;13.89;49.04
69535;BME280;56754;51.568;5.048;2023-12-07T04:41:11;101933.91;;;13.83;49.12
69535;BME280;56754;51.568;5.048;2023-12-07T04:43:36;101934.03;;;13.78;49.62
69535;BME280;56754;51.568;5.048;2023-12-07T04:46:02;101929.47;;;13.78;49.91
69535;BME280;56754;51.568;5.048;2023-12-07T04:48:27;101930.94;;;13.84;49.57
69535;BME280;56754;51.568;5.048;2023-12-07T04:50:52;101926.81;;;13.87;49.49
69535;BME280;56754;51.568;5.048;2023-12-07T04:53:17;101922.94;;;13.93;49.60
69535;BME280;56754;51.568;5.048;2023-12-07T04:55:43;101926.59;;;13.97;49.38
69535;BME280;56754;51.568;5.048;2023-12-07T04:58:08;101914.28;;;13.96;49.25
69535;BME280;56754;51.568;5.048;2023-12-07T05:00:33;101906.31;;;13.91;49.34
69535;BME280;56754;51.568;5.048;2023-12-07T05:02:58;101906.16;;;13.87;49.13
69535;BME280;56754;51.568;5.048;2023-12-07T05:05:24;101907.03;;;13.83;49.38
69535;BME280;56754;51.568;5.048;2023-12-07T05:07:49;101893.59;;;13.83;49.25
69535;BME280;56754;51.568;5.048;2023-12-07T05:10:14;101903.91;;;13.89;49.33
69535;BME280;56754;51.568;5.048;2023-12-07T05:12:40;101913.78;;;13.94;49.10
69535;BME280;56754;51.568;5.048;2023-12-07T05:15:05;101912.84;;;13.99;49.35
69535;BME280;56754;51.568;5.048;2023-12-07T05:17:31;101912.72;;;14.04;49.02
69535;BME280;56754;51.568;5.048;2023-12-07T05:19:56;101905.16;;;14.06;48.86
69535;BME280;56754;51.568;5.048;2023-12-07T05:22:21;101909.25;;;14.03;48.79
69535;BME280;56754;51.568;5.048;2023-12-07T05:24:47;101916.13;;;13.96;49.13
69535;BME280;56754;51.568;5.048;2023-12-07T05:27:12;101918.47;;;13.88;49.16
69535;BME280;56754;51.568;5.048;2023-12-07T05:29:37;101922.56;;;13.86;49.26
69535;BME280;56754;51.568;5.048;2023-12-07T05:32:03;101920.38;;;13.88;49.33
69535;BME280;56754;51.568;5.048;2023-12-07T05:34:28;101913.78;;;13.94;49.31
69535;BME280;56754;51.568;5.048;2023-12-07T05:36:53;101921.41;;;14.01;49.20
69535;BME280;56754;51.568;5.048;2023-12-07T05:39:18;101919.69;;;14.05;49.33
69535;BME280;56754;51.568;5.048;2023-12-07T05:41:44;101917.19;;;14.08;48.77
69535;BME280;56754;51.568;5.048;2023-12-07T05:44:09;101912.13;;;14.07;48.84
69535;BME280;56754;51.568;5.048;2023-12-07T05:46:37;101914.91;;;14.02;48.80
69535;BME280;56754;51.568;5.048;2023-12-07T05:49:03;101904.00;;;13.98;48.67
69535;BME280;56754;51.568;5.048;2023-12-07T05:51:28;101895.75;;;13.95;49.12
69535;BME280;56754;51.568;5.048;2023-12-07T05:53:53;101896.25;;;13.97;48.97
69535;BME280;56754;51.568;5.048;2023-12-07T05:56:19;101903.09;;;14.03;48.77
69535;BME280;56754;51.568;5.048;2023-12-07T05:58:44;101902.16;;;14.07;48.96
69535;BME280;56754;51.568;5.048;2023-12-07T06:01:10;101908.19;;;14.13;49.12
69535;BME280;56754;51.568;5.048;2023-12-07T06:03:35;101904.44;;;14.14;49.18
69535;BME280;56754;51.568;5.048;2023-12-07T06:06:00;101902.53;;;14.15;48.95
69535;BME280;56754;51.568;5.048;2023-12-07T06:08:26;101894.09;;;14.07;49.21
69535;BME280;56754;51.568;5.048;2023-12-07T06:10:54;101895.31;;;14.01;49.32
69535;BME280;56754;51.568;5.048;2023-12-07T06:13:19;101894.34;;;13.97;49.30
69535;BME280;56754;51.568;5.048;2023-12-07T06:15:45;101893.22;;;13.98;49.14
69535;BME280;56754;51.568;5.048;2023-12-07T06:18:10;101889.16;;;14.01;49.51
69535;BME280;56754;51.568;5.048;2023-12-07T06:20:35;101883.94;;;14.04;49.34
69535;BME280;56754;51.568;5.048;2023-12-07T06:23:01;101880.66;;;14.07;49.68
69535;BME280;56754;51.568;5.048;2023-12-07T06:25:26;101880.84;;;14.11;49.56
69535;BME280;56754;51.568;5.048;2023-12-07T06:27:51;101869.59;;;14.09;49.46
69535;BME280;56754;51.568;5.048;2023-12-07T06:30:16;101863.22;;;14.05;49.25
69535;BME280;56754;51.568;5.048;2023-12-07T06:32:42;101870.34;;;14.01;49.22
69535;BME280;56754;51.568;5.048;2023-12-07T06:35:07;101858.28;;;13.98;49.32
69535;BME280;56754;51.568;5.048;2023-12-07T06:37:33;101862.09;;;13.97;49.24
69535;BME280;56754;51.568;5.048;2023-12-07T06:39:58;101868.94;;;14.03;49.49
69535;BME280;56754;51.568;5.048;2023-12-07T06:42:24;101865.34;;;14.08;49.44
69535;BME280;56754;51.568;5.048;2023-12-07T06:44:49;101865.50;;;14.11;49.52
69535;BME280;56754;51.568;5.048;2023-12-07T06:47:15;101868.38;;;14.15;49.28
69535;BME280;56754;51.568;5.048;2023-12-07T06:49:40;101861.09;;;14.16;49.62
69535;BME280;56754;51.568;5.048;2023-12-07T06:52:06;101866.28;;;14.12;49.55
69535;BME280;56754;51.568;5.048;2023-12-07T06:54:31;101863.91;;;14.10;49.42
69535;BME280;56754;51.568;5.048;2023-12-07T06:56:57;101872.56;;;14.07;49.50
69535;BME280;56754;51.568;5.048;2023-12-07T06:59:22;101877.78;;;14.04;49.28
69535;BME280;56754;51.568;5.048;2023-12-07T07:01:47;101877.50;;;14.05;49.63
69535;BME280;56754;51.568;5.048;2023-12-07T07:04:13;101884.63;;;14.10;49.45
69535;BME280;56754;51.568;5.048;2023-12-07T07:06:41;101887.47;;;14.14;49.75
69535;BME280;56754;51.568;5.048;2023-12-07T07:09:06;101890.38;;;14.17;50.12
69535;BME280;56754;51.568;5.048;2023-12-07T07:11:32;101890.84;;;14.19;49.52
69535;BME280;56754;51.568;5.048;2023-12-07T07:13:57;101884.38;;;14.20;49.54
69535;BME280;56754;51.568;5.048;2023-12-07T07:16:23;101891.16;;;14.18;49.36
69535;BME280;56754;51.568;5.048;2023-12-07T07:18:48;101884.50;;;14.15;49.62
69535;BME280;56754;51.568;5.048;2023-12-07T07:21:13;101878.78;;;14.08;49.37
69535;BME280;56754;51.568;5.048;2023-12-07T07:23:38;101889.31;;;14.04;49.42
69535;BME280;56754;51.568;5.048;2023-12-07T07:26:04;101880.97;;;14.06;49.67
69535;BME280;56754;51.568;5.048;2023-12-07T07:28:29;101879.25;;;14.10;49.79
69535;BME280;56754;51.568;5.048;2023-12-07T07:30:54;101871.66;;;14.12;49.93
69535;BME280;56754;51.568;5.048;2023-12-07T07:33:20;101882.59;;;14.16;49.67
69535;BME280;56754;51.568;5.048;2023-12-07T07:35:45;101879.91;;;14.16;49.54
69535;BME280;56754;51.568;5.048;2023-12-07T07:38:10;101883.72;;;14.15;49.51
69535;BME280;56754;51.568;5.048;2023-12-07T07:40:36;101882.72;;;14.10;49.33
69535;BME280;56754;51.568;5.048;2023-12-07T07:43:01;101881.47;;;14.08;49.43
69535;BME280;56754;51.568;5.048;2023-12-07T07:45:26;101885.22;;;14.07;49.62
69535;BME280;56754;51.568;5.048;2023-12-07T07:47:52;101884.63;;;14.10;49.73
69535;BME280;56754;51.568;5.048;2023-12-07T07:50:18;101890.16;;;14.14;49.73
69535;BME280;56754;51.568;5.048;2023-12-07T07:52:43;101889.25;;;14.18;49.81
69535;BME280;56754;51.568;5.048;2023-12-07T07:55:10;101874.25;;;14.17;49.42
69535;BME280;56754;51.568;5.048;2023-12-07T07:57:35;101887.69;;;14.17;49.31
69535;BME280;56754;51.568;5.048;2023-12-07T08:00:00;101888.75;;;14.16;49.41
69535;BME280;56754;51.568;5.048;2023-12-07T08:02:26;101878.63;;;14.13;49.49
69535;BME280;56754;51.568;5.048;2023-12-07T08:04:51;101894.75;;;14.13;49.50
69535;BME280;56754;51.568;5.048;2023-12-07T08:07:17;101884.78;;;14.14;49.88
69535;BME280;56754;51.568;5.048;2023-12-07T08:09:42;101885.47;;;14.19;49.47
69535;BME280;56754;51.568;5.048;2023-12-07T08:12:07;101887.53;;;14.22;49.77
69535;BME280;56754;51.568;5.048;2023-12-07T08:14:35;101900.69;;;14.24;49.07
69535;BME280;56754;51.568;5.048;2023-12-07T08:17:00;101890.22;;;14.22;49.45
69535;BME280;56754;51.568;5.048;2023-12-07T08:19:26;101893.06;;;14.17;49.26
69535;BME280;56754;51.568;5.048;2023-12-07T08:21:51;101889.38;;;14.13;49.18
69535;BME280;56754;51.568;5.048;2023-12-07T08:24:16;101881.31;;;14.13;49.32
69535;BME280;56754;51.568;5.048;2023-12-07T08:26:42;101887.69;;;14.17;49.03
69535;BME280;56754;51.568;5.048;2023-12-07T08:29:07;101891.84;;;14.23;49.80
69535;BME280;56754;51.568;5.048;2023-12-07T08:31:32;101901.66;;;14.28;49.04
69535;BME280;56754;51.568;5.048;2023-12-07T08:33:57;101902.94;;;14.30;49.04
69535;BME280;56754;51.568;5.048;2023-12-07T08:36:23;101901.81;;;14.31;49.03
69535;BME280;56754;51.568;5.048;2023-12-07T08:38:48;101895.97;;;14.29;48.72
69535;BME280;56754;51.568;5.048;2023-12-07T08:41:13;101891.22;;;14.26;49.09
69535;BME280;56754;51.568;5.048;2023-12-07T08:43:39;101896.09;;;14.24;49.25
69535;BME280;56754;51.568;5.048;2023-12-07T08:46:04;101895.31;;;14.24;49.12
69535;BME280;56754;51.568;5.048;2023-12-07T08:48:30;101893.53;;;14.19;49.21
69535;BME280;56754;51.568;5.048;2023-12-07T08:50:57;101886.84;;;14.08;49.20
69535;BME280;56754;51.568;5.048;2023-12-07T08:53:22;101876.50;;;14.01;49.13
69535;BME280;56754;51.568;5.048;2023-12-07T08:55:48;101876.63;;;13.96;49.17
69535;BME280;56754;51.568;5.048;2023-12-07T08:58:13;101872.16;;;13.92;49.04
69535;BME280;56754;51.568;5.048;2023-12-07T09:00:38;101866.44;;;13.84;49.42
69535;BME280;56754;51.568;5.048;2023-12-07T09:03:04;101863.06;;;13.79;49.30
69535;BME280;56754;51.568;5.048;2023-12-07T09:05:29;101871.06;;;13.70;49.15
69535;BME280;56754;51.568;5.048;2023-12-07T09:07:54;101882.81;;;13.60;49.56
69535;BME280;56754;51.568;5.048;2023-12-07T09:10:20;101880.66;;;13.49;49.98
69535;BME280;56754;51.568;5.048;2023-12-07T09:12:45;101886.78;;;13.40;50.11
69535;BME280;56754;51.568;5.048;2023-12-07T09:15:11;101881.63;;;13.30;50.30
69535;BME280;56754;51.568;5.048;2023-12-07T09:17:37;101892.25;;;13.21;50.72
69535;BME280;56754;51.568;5.048;2023-12-07T09:20:10;101884.09;;;13.13;51.12
69535;BME280;56754;51.568;5.048;2023-12-07T09:22:36;101878.34;;;13.06;51.18
69535;BME280;56754;51.568;5.048;2023-12-07T09:25:01;101873.69;;;12.97;51.57
69535;BME280;56754;51.568;5.048;2023-12-07T09:27:27;101876.78;;;12.91;51.28
69535;BME280;56754;51.568;5.048;2023-12-07T09:29:52;101870.19;;;12.83;51.29
69535;BME280;56754;51.568;5.048;2023-12-07T09:32:17;101869.03;;;12.75;51.43
69535;BME280;56754;51.568;5.048;2023-12-07T09:34:42;101858.69;;;12.69;51.63
69535;BME280;56754;51.568;5.048;2023-12-07T09:37:08;101858.00;;;12.63;51.98
69535;BME280;56754;51.568;5.048;2023-12-07T09:39:34;101853.81;;;12.57;51.98
69535;BME280;56754;51.568;5.048;2023-12-07T09:42:01;101834.34;;;12.51;52.25
69535;BME280;56754;51.568;5.048;2023-12-07T09:44:27;101837.13;;;12.46;52.50
69535;BME280;56754;51.568;5.048;2023-12-07T09:46:52;101829.97;;;12.42;53.01
69535;BME280;56754;51.568;5.048;2023-12-07T09:49:17;101832.44;;;12.38;53.02
69535;BME280;56754;51.568;5.048;2023-12-07T09:51:44;101816.44;;;12.33;53.12
69535;BME280;56754;51.568;5.048;2023-12-07T09:54:10;101813.56;;;12.29;53.02
69535;BME280;56754;51.568;5.048;2023-12-07T09:56:36;101810.41;;;12.27;54.27
69535;BME280;56754;51.568;5.048;2023-12-07T09:59:01;101802.94;;;12.24;53.56
69535;BME280;56754;51.568;5.048;2023-12-07T10:01:30;101805.72;;;12.19;53.39
69535;BME280;56754;51.568;5.048;2023-12-07T10:04:21;101795.09;;;12.14;54.29
69535;BME280;56754;51.568;5.048;2023-12-07T10:06:47;101790.31;;;12.11;53.92
69535;BME280;56754;51.568;5.048;2023-12-07T10:09:12;101792.81;;;12.07;53.74
69535;BME280;56754;51.568;5.048;2023-12-07T10:11:38;101797.66;;;12.05;53.73
69535;BME280;56754;51.568;5.048;2023-12-07T10:14:05;101791.31;;;12.01;53.90
69535;BME280;56754;51.568;5.048;2023-12-07T10:16:31;101786.53;;;11.98;53.67
69535;BME280;56754;51.568;5.048;2023-12-07T10:18:56;101777.19;;;11.96;53.71
69535;BME280;56754;51.568;5.048;2023-12-07T10:21:33;101774.78;;;11.94;54.10
69535;BME280;56754;51.568;5.048;2023-12-07T10:23:59;101779.69;;;11.92;53.95
69535;BME280;56754;51.568;5.048;2023-12-07T10:26:24;101777.28;;;11.91;54.70
69535;BME280;56754;51.568;5.048;2023-12-07T10:28:50;101779.16;;;11.90;54.23
69535;BME280;56754;51.568;5.048;2023-12-07T10:31:18;101769.03;;;11.87;54.69
69535;BME280;56754;51.568;5.048;2023-12-07T10:33:50;101765.84;;;11.85;54.63
69535;BME280;56754;51.568;5.048;2023-12-07T10:36:15;101756.22;;;11.84;54.75
69535;BME280;56754;51.568;5.048;2023-12-07T10:38:40;101753.03;;;11.82;54.23
69535;BME280;56754;51.568;5.048;2023-12-07T10:41:07;101757.88;;;11.80;54.58
69535;BME280;56754;51.568;5.048;2023-12-07T10:43:37;101748.25;;;11.79;54.96
69535;BME280;56754;51.568;5.048;2023-12-07T10:46:04;101748.56;;;11.77;54.90
69535;BME280;56754;51.568;5.048;2023-12-07T10:48:34;101738.13;;;11.76;55.21
69535;BME280;56754;51.568;5.048;2023-12-07T10:51:04;101733.09;;;11.74;55.01
69535;BME280;56754;51.568;5.048;2023-12-07T10:53:37;101730.41;;;11.74;55.23
69535;BME280;56754;51.568;5.048;2023-12-07T10:56:09;101728.78;;;11.73;55.36
69535;BME280;56754;51.568;5.048;2023-12-07T10:58:35;101718.41;;;11.72;54.95
69535;BME280;56754;51.568;5.048;2023-12-07T11:01:01;101722.97;;;11.71;55.13
69535;BME280;56754;51.568;5.048;2023-12-07T11:03:27;101713.31;;;11.70;55.00
69535;BME280;56754;51.568;5.048;2023-12-07T11:05:53;101706.38;;;11.69;55.39
69535;BME280;56754;51.568;5.048;2023-12-07T11:14:05;101695.47;;;11.66;55.46
69535;BME280;56754;51.568;5.048;2023-12-07T11:16:41;101682.94;;;11.61;55.42
69535;BME280;56754;51.568;5.048;2023-12-07T11:21:56;101689.41;;;11.60;55.49
69535;BME280;56754;51.568;5.048;2023-12-07T11:24:23;101683.25;;;11.59;55.23
69535;BME280;56754;51.568;5.048;2023-12-07T11:26:51;101682.75;;;11.57;55.36
69535;BME280;56754;51.568;5.048;2023-12-07T11:29:20;101681.97;;;11.57;55.37
69535;BME280;56754;51.568;5.048;2023-12-07T11:31:45;101677.69;;;11.56;55.46
69535;BME280;56754;51.568;5.048;2023-12-07T11:34:11;101669.16;;;11.54;55.34
69535;BME280;56754;51.568;5.048;2023-12-07T11:36:37;101663.81;;;11.54;55.29
69535;BME280;56754;51.568;5.048;2023-12-07T11:41:34;101660.63;;;11.52;55.32
69535;BME280;56754;51.568;5.048;2023-12-07T11:44:00;101650.19;;;11.50;55.57
69535;BME280;56754;51.568;5.048;2023-12-07T11:46:25;101655.28;;;11.52;55.49
69535;BME280;56754;51.568;5.048;2023-12-07T11:48:50;101648.53;;;11.54;55.46
69535;BME280;56754;51.568;5.048;2023-12-07T11:51:16;101646.94;;;11.53;55.50
69535;BME280;56754;51.568;5.048;2023-12-07T11:53:41;101644.56;;;11.52;55.58
69535;BME280;56754;51.568;5.048;2023-12-07T11:56:08;101642.16;;;11.50;55.36
69535;BME280;56754;51.568;5.048;2023-12-07T11:58:35;101638.69;;;11.50;55.52
69535;BME280;56754;51.568;5.048;2023-12-07T12:01:01;101633.66;;;11.48;55.57
69535;BME280;56754;51.568;5.048;2023-12-07T12:03:27;101637.41;;;11.47;55.68
69535;BME280;56754;51.568;5.048;2023-12-07T12:05:54;101630.47;;;11.46;55.46
69535;BME280;56754;51.568;5.048;2023-12-07T12:08:19;101629.69;;;11.46;55.61
69535;BME280;56754;51.568;5.048;2023-12-07T12:10:45;101628.91;;;11.45;55.53
69535;BME280;56754;51.568;5.048;2023-12-07T12:13:11;101632.88;;;11.48;55.90
69535;BME280;56754;51.568;5.048;2023-12-07T12:15:40;101612.53;;;11.47;55.76
69535;BME280;56754;51.568;5.048;2023-12-07T12:18:06;101603.69;;;11.46;55.64
69535;BME280;56754;51.568;5.048;2023-12-07T12:20:31;101602.13;;;11.45;55.41
69535;BME280;56754;51.568;5.048;2023-12-07T12:22:57;101602.91;;;11.46;55.38
69535;BME280;56754;51.568;5.048;2023-12-07T12:25:31;101597.84;;;11.44;56.00
69535;BME280;56754;51.568;5.048;2023-12-07T12:28:02;101588.63;;;11.50;56.78
69535;BME280;56754;51.568;5.048;2023-12-07T12:30:28;101581.28;;;11.56;56.23
69535;BME280;56754;51.568;5.048;2023-12-07T12:32:55;101576.44;;;11.58;56.64
69535;BME280;56754;51.568;5.048;2023-12-07T12:35:20;101564.94;;;11.57;56.32
69535;BME280;56754;51.568;5.048;2023-12-07T12:37:47;101549.16;;;11.56;56.00
69535;BME280;56754;51.568;5.048;2023-12-07T12:40:14;101536.69;;;11.51;55.99
69535;BME280;56754;51.568;5.048;2023-12-07T12:42:40;101536.19;;;11.49;55.79
69535;BME280;56754;51.568;5.048;2023-12-07T12:45:08;101528.94;;;11.50;56.03
69535;BME280;56754;51.568;5.048;2023-12-07T12:47:33;101524.97;;;11.47;55.97
69535;BME280;56754;51.568;5.048;2023-12-07T12:49:59;101520.44;;;11.48;55.91
69535;BME280;56754;51.568;5.048;2023-12-07T12:52:24;101518.81;;;11.47;56.07
69535;BME280;56754;51.568;5.048;2023-12-07T12:54:49;101517.25;;;11.46;56.08